GSB weather

Seymour Johnson Air Force Base
Goldsboro, North Carolina, United States

Public forecast

Using degrees Fahrenheit for public forecast. Weather courtesy of forecast.io.

Current aviation weather report (METAR) for Seymour Johnson Air Force Base

Retrieved 2020/05/26 17:11 UTC (37 minutes ago):

KGSB 261711Z AUTO 04008KT 10SM BKN023 23/18 A3014 RMK AO2 CIG 022 RWY26 SLP209

Aviation forecast (TAF) for Seymour Johnson Air Force Base

Retrieved 2020/05/26 12:08 UTC (6 hours ago):

TAF KGSB 261200Z 2612/2718 08007KT 9999 OVC009 QNH3013INS BECMG 2614/2615 06008KT 9999 BKN015 OVC020 QNH3011INS BECMG 2617/2618 07008KT 9999 BKN030 QNH3007INS BECMG 2702/2703 08007KT 9999 SCT015 BKN020 QNH3008INS BECMG 2705/2706 07008KT 9999 BKN007 QNH3008INS BECMG 2714/2715 07008KT 9999 BKN015 QNH3004INS TX24/2620Z TN17/2612Z